sensor_id;sensor_type;location;lat;lon;timestamp;temperature;humidity
68433;DHT22;55412;51.350;17.056;2022-08-25T00:01:58;19.80;87.30
68433;DHT22;55412;51.350;17.056;2022-08-25T00:04:27;19.80;86.60
68433;DHT22;55412;51.350;17.056;2022-08-25T00:06:54;19.70;86.40
68433;DHT22;55412;51.350;17.056;2022-08-25T00:09:22;19.70;87.00
68433;DHT22;55412;51.350;17.056;2022-08-25T00:11:50;19.60;87.60
68433;DHT22;55412;51.350;17.056;2022-08-25T00:14:23;19.60;87.90
68433;DHT22;55412;51.350;17.056;2022-08-25T00:16:54;19.60;87.60
68433;DHT22;55412;51.350;17.056;2022-08-25T00:19:23;19.60;86.60
68433;DHT22;55412;51.350;17.056;2022-08-25T00:21:52;19.60;87.30
68433;DHT22;55412;51.350;17.056;2022-08-25T00:24:19;19.60;87.60
68433;DHT22;55412;51.350;17.056;2022-08-25T00:26:47;19.60;87.60
68433;DHT22;55412;51.350;17.056;2022-08-25T00:29:16;19.60;86.60
68433;DHT22;55412;51.350;17.056;2022-08-25T00:31:43;19.60;87.00
68433;DHT22;55412;51.350;17.056;2022-08-25T00:34:13;19.50;87.10
68433;DHT22;55412;51.350;17.056;2022-08-25T00:36:42;19.50;87.30
68433;DHT22;55412;51.350;17.056;2022-08-25T00:39:10;19.40;87.00
68433;DHT22;55412;51.350;17.056;2022-08-25T00:41:39;19.40;86.80
68433;DHT22;55412;51.350;17.056;2022-08-25T00:44:09;19.40;86.80
68433;DHT22;55412;51.350;17.056;2022-08-25T00:46:43;19.30;86.40
68433;DHT22;55412;51.350;17.056;2022-08-25T00:49:33;19.30;86.30
68433;DHT22;55412;51.350;17.056;2022-08-25T00:52:10;19.30;87.00
68433;DHT22;55412;51.350;17.056;2022-08-25T00:54:45;19.20;87.90
68433;DHT22;55412;51.350;17.056;2022-08-25T00:57:16;19.30;88.00
68433;DHT22;55412;51.350;17.056;2022-08-25T00:59:45;19.30;86.70
68433;DHT22;55412;51.350;17.056;2022-08-25T01:02:11;19.20;87.00
68433;DHT22;55412;51.350;17.056;2022-08-25T01:04:41;19.20;87.10
68433;DHT22;55412;51.350;17.056;2022-08-25T01:07:08;19.20;86.20
68433;DHT22;55412;51.350;17.056;2022-08-25T01:09:35;19.10;86.10
68433;DHT22;55412;51.350;17.056;2022-08-25T01:12:03;19.10;86.50
68433;DHT22;55412;51.350;17.056;2022-08-25T01:14:30;19.10;87.50
68433;DHT22;55412;51.350;17.056;2022-08-25T01:16:57;19.10;88.40
68433;DHT22;55412;51.350;17.056;2022-08-25T01:19:25;19.10;88.70
68433;DHT22;55412;51.350;17.056;2022-08-25T01:21:54;19.20;88.70
68433;DHT22;55412;51.350;17.056;2022-08-25T01:27:19;19.20;88.80
68433;DHT22;55412;51.350;17.056;2022-08-25T01:29:45;19.20;89.40
68433;DHT22;55412;51.350;17.056;2022-08-25T01:32:12;19.20;89.10
68433;DHT22;55412;51.350;17.056;2022-08-25T01:34:41;19.20;88.50
68433;DHT22;55412;51.350;17.056;2022-08-25T01:37:11;19.20;88.00
68433;DHT22;55412;51.350;17.056;2022-08-25T01:39:39;19.20;87.40
68433;DHT22;55412;51.350;17.056;2022-08-25T01:42:19;19.20;87.90
68433;DHT22;55412;51.350;17.056;2022-08-25T01:45:11;19.20;87.90
68433;DHT22;55412;51.350;17.056;2022-08-25T01:47:37;19.20;87.10
68433;DHT22;55412;51.350;17.056;2022-08-25T01:50:05;19.10;86.70
68433;DHT22;55412;51.350;17.056;2022-08-25T01:52:38;19.10;85.80
68433;DHT22;55412;51.350;17.056;2022-08-25T01:55:15;19.10;86.00
68433;DHT22;55412;51.350;17.056;2022-08-25T01:57:42;19.10;87.60
68433;DHT22;55412;51.350;17.056;2022-08-25T02:00:09;19.10;87.80
68433;DHT22;55412;51.350;17.056;2022-08-25T02:02:39;19.10;87.70
68433;DHT22;55412;51.350;17.056;2022-08-25T02:05:05;19.00;87.70
68433;DHT22;55412;51.350;17.056;2022-08-25T02:07:32;19.00;86.50
68433;DHT22;55412;51.350;17.056;2022-08-25T02:09:58;18.90;86.00
68433;DHT22;55412;51.350;17.056;2022-08-25T02:12:24;18.90;87.60
68433;DHT22;55412;51.350;17.056;2022-08-25T02:14:50;18.90;87.70
68433;DHT22;55412;51.350;17.056;2022-08-25T02:17:16;18.90;87.60
68433;DHT22;55412;51.350;17.056;2022-08-25T02:19:42;18.90;88.40
68433;DHT22;55412;51.350;17.056;2022-08-25T02:22:08;18.90;88.20
68433;DHT22;55412;51.350;17.056;2022-08-25T02:24:34;18.90;88.40
68433;DHT22;55412;51.350;17.056;2022-08-25T02:27:00;18.90;88.20
68433;DHT22;55412;51.350;17.056;2022-08-25T02:29:28;18.90;88.80
68433;DHT22;55412;51.350;17.056;2022-08-25T02:31:55;18.80;88.70
68433;DHT22;55412;51.350;17.056;2022-08-25T02:34:21;18.80;89.10
68433;DHT22;55412;51.350;17.056;2022-08-25T02:36:48;18.70;89.00
68433;DHT22;55412;51.350;17.056;2022-08-25T02:39:14;18.70;89.00
68433;DHT22;55412;51.350;17.056;2022-08-25T02:41:40;18.70;89.10
68433;DHT22;55412;51.350;17.056;2022-08-25T02:44:07;18.70;89.00
68433;DHT22;55412;51.350;17.056;2022-08-25T02:46:35;18.70;88.50
68433;DHT22;55412;51.350;17.056;2022-08-25T02:49:02;18.70;87.50
68433;DHT22;55412;51.350;17.056;2022-08-25T02:51:29;18.70;87.90
68433;DHT22;55412;51.350;17.056;2022-08-25T02:54:01;18.60;88.00
68433;DHT22;55412;51.350;17.056;2022-08-25T02:56:30;18.60;87.60
68433;DHT22;55412;51.350;17.056;2022-08-25T02:58:57;18.60;87.40
68433;DHT22;55412;51.350;17.056;2022-08-25T03:01:24;18.60;87.90
68433;DHT22;55412;51.350;17.056;2022-08-25T03:03:50;18.60;88.40
68433;DHT22;55412;51.350;17.056;2022-08-25T03:06:19;18.60;88.30
68433;DHT22;55412;51.350;17.056;2022-08-25T03:08:49;18.60;88.70
68433;DHT22;55412;51.350;17.056;2022-08-25T03:11:15;18.60;89.10
68433;DHT22;55412;51.350;17.056;2022-08-25T03:13:42;18.60;89.20
68433;DHT22;55412;51.350;17.056;2022-08-25T03:16:09;18.60;89.10
68433;DHT22;55412;51.350;17.056;2022-08-25T03:18:36;18.60;89.10
68433;DHT22;55412;51.350;17.056;2022-08-25T03:21:02;18.60;89.40
68433;DHT22;55412;51.350;17.056;2022-08-25T03:23:29;18.60;89.10
68433;DHT22;55412;51.350;17.056;2022-08-25T03:25:55;18.60;88.70
68433;DHT22;55412;51.350;17.056;2022-08-25T03:28:40;18.60;88.90
68433;DHT22;55412;51.350;17.056;2022-08-25T03:31:07;18.50;89.40
68433;DHT22;55412;51.350;17.056;2022-08-25T03:33:34;18.60;90.00
68433;DHT22;55412;51.350;17.056;2022-08-25T03:36:01;18.60;90.40
68433;DHT22;55412;51.350;17.056;2022-08-25T03:38:28;18.60;90.70
68433;DHT22;55412;51.350;17.056;2022-08-25T03:40:54;18.60;90.90
68433;DHT22;55412;51.350;17.056;2022-08-25T03:43:20;18.60;90.00
68433;DHT22;55412;51.350;17.056;2022-08-25T03:45:46;18.60;89.80
68433;DHT22;55412;51.350;17.056;2022-08-25T03:48:14;18.50;90.30
68433;DHT22;55412;51.350;17.056;2022-08-25T03:50:50;18.50;90.60
68433;DHT22;55412;51.350;17.056;2022-08-25T03:53:18;18.50;90.50
68433;DHT22;55412;51.350;17.056;2022-08-25T03:55:45;18.50;90.40
68433;DHT22;55412;51.350;17.056;2022-08-25T03:58:12;18.50;90.50
68433;DHT22;55412;51.350;17.056;2022-08-25T04:00:38;18.60;90.90
68433;DHT22;55412;51.350;17.056;2022-08-25T04:03:04;18.60;91.20
68433;DHT22;55412;51.350;17.056;2022-08-25T04:05:30;18.60;91.30
68433;DHT22;55412;51.350;17.056;2022-08-25T04:07:57;18.60;91.40
68433;DHT22;55412;51.350;17.056;2022-08-25T04:10:23;18.50;92.00
68433;DHT22;55412;51.350;17.056;2022-08-25T04:12:49;18.60;92.50
68433;DHT22;55412;51.350;17.056;2022-08-25T04:15:15;18.60;92.40
68433;DHT22;55412;51.350;17.056;2022-08-25T04:17:41;18.60;92.60
68433;DHT22;55412;51.350;17.056;2022-08-25T04:20:09;18.60;92.90
68433;DHT22;55412;51.350;17.056;2022-08-25T04:22:36;18.70;93.30
68433;DHT22;55412;51.350;17.056;2022-08-25T04:25:04;18.70;93.30
68433;DHT22;55412;51.350;17.056;2022-08-25T04:27:31;18.70;93.30
68433;DHT22;55412;51.350;17.056;2022-08-25T04:29:58;18.80;92.90
68433;DHT22;55412;51.350;17.056;2022-08-25T04:32:24;18.80;92.80
68433;DHT22;55412;51.350;17.056;2022-08-25T04:34:50;18.90;92.80
68433;DHT22;55412;51.350;17.056;2022-08-25T04:37:17;18.90;92.30
68433;DHT22;55412;51.350;17.056;2022-08-25T04:39:43;18.90;92.80
68433;DHT22;55412;51.350;17.056;2022-08-25T04:42:09;18.90;93.20
68433;DHT22;55412;51.350;17.056;2022-08-25T04:44:36;19.00;93.20
68433;DHT22;55412;51.350;17.056;2022-08-25T04:47:02;19.00;93.30
68433;DHT22;55412;51.350;17.056;2022-08-25T04:49:28;19.00;93.90
68433;DHT22;55412;51.350;17.056;2022-08-25T04:51:55;19.00;94.30
68433;DHT22;55412;51.350;17.056;2022-08-25T04:54:21;19.00;94.50
68433;DHT22;55412;51.350;17.056;2022-08-25T04:56:49;19.00;95.00
68433;DHT22;55412;51.350;17.056;2022-08-25T04:59:17;19.10;95.30
68433;DHT22;55412;51.350;17.056;2022-08-25T05:01:45;19.10;95.70
68433;DHT22;55412;51.350;17.056;2022-08-25T05:04:13;19.10;95.70
68433;DHT22;55412;51.350;17.056;2022-08-25T05:06:41;19.20;95.70
68433;DHT22;55412;51.350;17.056;2022-08-25T05:09:08;19.20;95.90
68433;DHT22;55412;51.350;17.056;2022-08-25T05:11:34;19.30;96.10
68433;DHT22;55412;51.350;17.056;2022-08-25T05:14:01;19.30;95.00
68433;DHT22;55412;51.350;17.056;2022-08-25T05:16:28;19.30;94.50
68433;DHT22;55412;51.350;17.056;2022-08-25T05:18:55;19.40;94.70
68433;DHT22;55412;51.350;17.056;2022-08-25T05:21:24;19.40;94.90
68433;DHT22;55412;51.350;17.056;2022-08-25T05:23:56;19.40;94.50
68433;DHT22;55412;51.350;17.056;2022-08-25T05:26:26;19.50;95.00
68433;DHT22;55412;51.350;17.056;2022-08-25T05:28:54;19.50;94.80
68433;DHT22;55412;51.350;17.056;2022-08-25T05:31:22;19.50;95.10
68433;DHT22;55412;51.350;17.056;2022-08-25T05:33:50;19.50;95.20
68433;DHT22;55412;51.350;17.056;2022-08-25T05:36:18;19.60;95.50
68433;DHT22;55412;51.350;17.056;2022-08-25T05:38:46;19.60;95.10
68433;DHT22;55412;51.350;17.056;2022-08-25T05:41:16;19.60;94.80
68433;DHT22;55412;51.350;17.056;2022-08-25T05:43:45;19.70;95.10
68433;DHT22;55412;51.350;17.056;2022-08-25T05:46:14;19.70;94.20
68433;DHT22;55412;51.350;17.056;2022-08-25T05:48:41;19.70;94.00
68433;DHT22;55412;51.350;17.056;2022-08-25T05:51:09;19.80;93.70
68433;DHT22;55412;51.350;17.056;2022-08-25T05:53:36;19.80;93.80
68433;DHT22;55412;51.350;17.056;2022-08-25T05:56:04;19.80;93.70
68433;DHT22;55412;51.350;17.056;2022-08-25T05:58:31;19.80;93.80
68433;DHT22;55412;51.350;17.056;2022-08-25T06:00:58;19.80;93.00
68433;DHT22;55412;51.350;17.056;2022-08-25T06:03:45;19.80;93.10
68433;DHT22;55412;51.350;17.056;2022-08-25T06:06:12;19.80;92.50
68433;DHT22;55412;51.350;17.056;2022-08-25T06:08:40;19.80;92.60
68433;DHT22;55412;51.350;17.056;2022-08-25T06:11:07;19.80;92.30
68433;DHT22;55412;51.350;17.056;2022-08-25T06:13:33;19.80;91.80
68433;DHT22;55412;51.350;17.056;2022-08-25T06:16:00;19.80;92.00
68433;DHT22;55412;51.350;17.056;2022-08-25T06:18:26;19.80;92.40
68433;DHT22;55412;51.350;17.056;2022-08-25T06:20:52;19.80;91.70
68433;DHT22;55412;51.350;17.056;2022-08-25T06:23:18;19.90;91.50
68433;DHT22;55412;51.350;17.056;2022-08-25T06:25:49;19.90;91.40
68433;DHT22;55412;51.350;17.056;2022-08-25T06:28:16;19.90;90.80
68433;DHT22;55412;51.350;17.056;2022-08-25T06:30:44;19.90;91.10
68433;DHT22;55412;51.350;17.056;2022-08-25T06:33:11;19.90;91.40
68433;DHT22;55412;51.350;17.056;2022-08-25T06:35:43;19.90;91.00
68433;DHT22;55412;51.350;17.056;2022-08-25T06:38:10;19.90;91.10
68433;DHT22;55412;51.350;17.056;2022-08-25T06:40:36;20.00;91.00
68433;DHT22;55412;51.350;17.056;2022-08-25T06:43:03;20.00;91.20
68433;DHT22;55412;51.350;17.056;2022-08-25T06:45:33;20.00;91.80
68433;DHT22;55412;51.350;17.056;2022-08-25T06:48:00;20.00;91.40
68433;DHT22;55412;51.350;17.056;2022-08-25T06:50:27;20.00;90.70
68433;DHT22;55412;51.350;17.056;2022-08-25T06:52:53;20.10;90.20
68433;DHT22;55412;51.350;17.056;2022-08-25T06:55:19;20.10;89.90
68433;DHT22;55412;51.350;17.056;2022-08-25T06:57:46;20.10;90.40
68433;DHT22;55412;51.350;17.056;2022-08-25T07:00:12;20.20;89.40
68433;DHT22;55412;51.350;17.056;2022-08-25T07:02:38;20.20;89.30
68433;DHT22;55412;51.350;17.056;2022-08-25T07:05:05;20.20;89.40
68433;DHT22;55412;51.350;17.056;2022-08-25T07:07:31;20.30;89.20
68433;DHT22;55412;51.350;17.056;2022-08-25T07:09:57;20.30;89.10
68433;DHT22;55412;51.350;17.056;2022-08-25T07:12:23;20.30;89.70
68433;DHT22;55412;51.350;17.056;2022-08-25T07:14:50;20.30;89.20
68433;DHT22;55412;51.350;17.056;2022-08-25T07:17:16;20.40;89.30
68433;DHT22;55412;51.350;17.056;2022-08-25T07:19:42;20.30;89.90
68433;DHT22;55412;51.350;17.056;2022-08-25T07:22:08;20.30;89.30
68433;DHT22;55412;51.350;17.056;2022-08-25T07:24:34;20.30;89.50
68433;DHT22;55412;51.350;17.056;2022-08-25T07:27:00;20.40;89.40
68433;DHT22;55412;51.350;17.056;2022-08-25T07:29:27;20.40;89.00
68433;DHT22;55412;51.350;17.056;2022-08-25T07:31:54;20.40;88.90
68433;DHT22;55412;51.350;17.056;2022-08-25T07:34:21;20.40;88.80
68433;DHT22;55412;51.350;17.056;2022-08-25T07:37:05;20.40;89.30
68433;DHT22;55412;51.350;17.056;2022-08-25T07:39:32;20.50;90.20
68433;DHT22;55412;51.350;17.056;2022-08-25T07:41:58;20.50;90.70
68433;DHT22;55412;51.350;17.056;2022-08-25T07:44:25;20.50;90.70
68433;DHT22;55412;51.350;17.056;2022-08-25T07:46:52;20.60;89.80
68433;DHT22;55412;51.350;17.056;2022-08-25T07:49:20;20.60;90.20
68433;DHT22;55412;51.350;17.056;2022-08-25T07:51:47;20.60;90.20
68433;DHT22;55412;51.350;17.056;2022-08-25T07:54:13;20.60;90.20
68433;DHT22;55412;51.350;17.056;2022-08-25T07:56:40;20.50;90.40
68433;DHT22;55412;51.350;17.056;2022-08-25T07:59:08;20.60;91.10
68433;DHT22;55412;51.350;17.056;2022-08-25T08:01:34;20.60;91.10
68433;DHT22;55412;51.350;17.056;2022-08-25T08:04:01;20.60;91.30
68433;DHT22;55412;51.350;17.056;2022-08-25T08:06:28;20.60;91.80
68433;DHT22;55412;51.350;17.056;2022-08-25T08:08:55;20.70;92.30
68433;DHT22;55412;51.350;17.056;2022-08-25T08:11:24;20.80;91.70
68433;DHT22;55412;51.350;17.056;2022-08-25T08:14:02;20.80;91.60
68433;DHT22;55412;51.350;17.056;2022-08-25T08:16:29;20.90;91.50
68433;DHT22;55412;51.350;17.056;2022-08-25T08:18:57;20.90;91.00
68433;DHT22;55412;51.350;17.056;2022-08-25T08:21:29;21.00;90.80
68433;DHT22;55412;51.350;17.056;2022-08-25T08:23:58;21.10;91.00
68433;DHT22;55412;51.350;17.056;2022-08-25T08:26:26;21.20;92.00
68433;DHT22;55412;51.350;17.056;2022-08-25T08:28:53;21.30;91.50
68433;DHT22;55412;51.350;17.056;2022-08-25T08:31:21;21.40;90.70
68433;DHT22;55412;51.350;17.056;2022-08-25T08:33:49;21.60;91.40
68433;DHT22;55412;51.350;17.056;2022-08-25T08:36:16;21.70;90.20
68433;DHT22;55412;51.350;17.056;2022-08-25T08:38:43;21.80;89.80
68433;DHT22;55412;51.350;17.056;2022-08-25T08:50:10;23.30;87.70
68433;DHT22;55412;51.350;17.056;2022-08-25T08:56:05;24.30;83.60
68433;DHT22;55412;51.350;17.056;2022-08-25T08:58:48;24.80;79.20
68433;DHT22;55412;51.350;17.056;2022-08-25T09:01:27;25.10;77.40
68433;DHT22;55412;51.350;17.056;2022-08-25T09:04:20;25.30;77.40
68433;DHT22;55412;51.350;17.056;2022-08-25T09:06:51;25.40;74.40
68433;DHT22;55412;51.350;17.056;2022-08-25T09:09:25;25.70;73.70
68433;DHT22;55412;51.350;17.056;2022-08-25T09:15:47;26.20;71.50
68433;DHT22;55412;51.350;17.056;2022-08-25T09:22:04;26.50;69.40
68433;DHT22;55412;51.350;17.056;2022-08-25T09:27:40;26.70;70.80
68433;DHT22;55412;51.350;17.056;2022-08-25T09:30:31;26.80;69.40
68433;DHT22;55412;51.350;17.056;2022-08-25T09:33:26;26.90;67.30
68433;DHT22;55412;51.350;17.056;2022-08-25T09:35:55;27.00;68.70
68433;DHT22;55412;51.350;17.056;2022-08-25T09:38:22;27.10;67.30
68433;DHT22;55412;51.350;17.056;2022-08-25T09:40:53;27.20;65.80
68433;DHT22;55412;51.350;17.056;2022-08-25T09:43:33;27.20;66.00
68433;DHT22;55412;51.350;17.056;2022-08-25T09:46:13;27.30;66.60
68433;DHT22;55412;51.350;17.056;2022-08-25T09:48:51;27.40;68.10
68433;DHT22;55412;51.350;17.056;2022-08-25T09:51:32;27.50;68.10
68433;DHT22;55412;51.350;17.056;2022-08-25T09:56:54;27.70;68.10
68433;DHT22;55412;51.350;17.056;2022-08-25T09:59:29;27.70;66.00
68433;DHT22;55412;51.350;17.056;2022-08-25T10:02:01;27.80;64.00
68433;DHT22;55412;51.350;17.056;2022-08-25T10:04:36;27.70;64.80
68433;DHT22;55412;51.350;17.056;2022-08-25T10:07:29;27.80;65.60
68433;DHT22;55412;51.350;17.056;2022-08-25T10:10:00;27.90;64.50
68433;DHT22;55412;51.350;17.056;2022-08-25T10:12:38;27.90;63.80
68433;DHT22;55412;51.350;17.056;2022-08-25T10:15:24;27.90;61.40
68433;DHT22;55412;51.350;17.056;2022-08-25T10:17:51;27.80;60.60
68433;DHT22;55412;51.350;17.056;2022-08-25T10:20:23;27.70;60.10
68433;DHT22;55412;51.350;17.056;2022-08-25T10:22:51;27.50;62.50
68433;DHT22;55412;51.350;17.056;2022-08-25T10:25:34;27.40;63.40
68433;DHT22;55412;51.350;17.056;2022-08-25T10:28:33;27.30;63.30
68433;DHT22;55412;51.350;17.056;2022-08-25T10:34:06;27.10;63.40
68433;DHT22;55412;51.350;17.056;2022-08-25T10:39:44;27.00;63.10
68433;DHT22;55412;51.350;17.056;2022-08-25T10:42:40;26.90;63.50
68433;DHT22;55412;51.350;17.056;2022-08-25T10:45:21;26.80;63.60
68433;DHT22;55412;51.350;17.056;2022-08-25T10:48:34;26.60;63.80
68433;DHT22;55412;51.350;17.056;2022-08-25T11:00:08;26.40;65.80
68433;DHT22;55412;51.350;17.056;2022-08-25T11:06:00;26.30;66.00
68433;DHT22;55412;51.350;17.056;2022-08-25T11:08:38;26.40;67.10
68433;DHT22;55412;51.350;17.056;2022-08-25T11:11:30;26.30;67.00
68433;DHT22;55412;51.350;17.056;2022-08-25T11:14:16;26.30;66.30
68433;DHT22;55412;51.350;17.056;2022-08-25T11:17:05;26.40;67.00
68433;DHT22;55412;51.350;17.056;2022-08-25T11:19:44;26.50;66.90
68433;DHT22;55412;51.350;17.056;2022-08-25T11:25:57;26.80;67.40
68433;DHT22;55412;51.350;17.056;2022-08-25T11:30:57;26.70;67.10
68433;DHT22;55412;51.350;17.056;2022-08-25T11:33:26;26.90;66.80
68433;DHT22;55412;51.350;17.056;2022-08-25T11:39:14;26.90;66.40
68433;DHT22;55412;51.350;17.056;2022-08-25T11:41:57;26.90;66.40
68433;DHT22;55412;51.350;17.056;2022-08-25T11:47:45;26.90;65.70
68433;DHT22;55412;51.350;17.056;2022-08-25T11:50:25;27.00;67.70
68433;DHT22;55412;51.350;17.056;2022-08-25T11:55:52;27.30;64.70
68433;DHT22;55412;51.350;17.056;2022-08-25T11:58:48;27.40;64.30
68433;DHT22;55412;51.350;17.056;2022-08-25T12:04:40;27.50;63.10
68433;DHT22;55412;51.350;17.056;2022-08-25T12:12:36;27.10;63.70
68433;DHT22;55412;51.350;17.056;2022-08-25T12:18:12;27.10;63.20
68433;DHT22;55412;51.350;17.056;2022-08-25T12:23:40;27.10;64.40
68433;DHT22;55412;51.350;17.056;2022-08-25T12:26:13;27.10;63.60
68433;DHT22;55412;51.350;17.056;2022-08-25T12:35:28;27.10;65.30
68433;DHT22;55412;51.350;17.056;2022-08-25T12:38:14;27.20;63.60
68433;DHT22;55412;51.350;17.056;2022-08-25T12:41:14;27.10;62.10
68433;DHT22;55412;51.350;17.056;2022-08-25T12:43:48;27.10;63.30
68433;DHT22;55412;51.350;17.056;2022-08-25T13:00:43;27.10;63.70
68433;DHT22;55412;51.350;17.056;2022-08-25T13:06:30;26.90;63.60
68433;DHT22;55412;51.350;17.056;2022-08-25T13:12:25;27.00;63.70
68433;DHT22;55412;51.350;17.056;2022-08-25T13:14:57;27.00;64.30
68433;DHT22;55412;51.350;17.056;2022-08-25T13:17:30;26.90;64.30
68433;DHT22;55412;51.350;17.056;2022-08-25T13:20:23;26.80;64.80
68433;DHT22;55412;51.350;17.056;2022-08-25T13:22:58;26.60;65.00
68433;DHT22;55412;51.350;17.056;2022-08-25T13:25:27;26.60;65.80
68433;DHT22;55412;51.350;17.056;2022-08-25T13:27:58;26.60;65.70
68433;DHT22;55412;51.350;17.056;2022-08-25T13:30:31;26.70;66.10
68433;DHT22;55412;51.350;17.056;2022-08-25T13:33:16;26.70;66.10
68433;DHT22;55412;51.350;17.056;2022-08-25T13:35:55;26.60;66.10
68433;DHT22;55412;51.350;17.056;2022-08-25T13:38:42;26.60;65.00
68433;DHT22;55412;51.350;17.056;2022-08-25T13:41:09;26.60;66.30
68433;DHT22;55412;51.350;17.056;2022-08-25T13:43:37;26.60;66.10
68433;DHT22;55412;51.350;17.056;2022-08-25T13:46:04;26.70;66.10
68433;DHT22;55412;51.350;17.056;2022-08-25T13:48:36;26.70;66.20
68433;DHT22;55412;51.350;17.056;2022-08-25T13:51:19;26.80;65.10
68433;DHT22;55412;51.350;17.056;2022-08-25T13:53:56;26.70;66.00
68433;DHT22;55412;51.350;17.056;2022-08-25T13:56:40;26.70;66.10
68433;DHT22;55412;51.350;17.056;2022-08-25T13:59:28;26.70;66.40
68433;DHT22;55412;51.350;17.056;2022-08-25T14:02:03;26.70;66.50
68433;DHT22;55412;51.350;17.056;2022-08-25T14:04:43;26.70;66.50
68433;DHT22;55412;51.350;17.056;2022-08-25T14:10:10;26.70;66.00
68433;DHT22;55412;51.350;17.056;2022-08-25T14:12:43;26.60;66.50
68433;DHT22;55412;51.350;17.056;2022-08-25T14:18:01;26.70;67.20
68433;DHT22;55412;51.350;17.056;2022-08-25T14:20:32;26.70;66.50
68433;DHT22;55412;51.350;17.056;2022-08-25T14:23:10;26.60;67.50
68433;DHT22;55412;51.350;17.056;2022-08-25T14:25:43;26.60;65.80
68433;DHT22;55412;51.350;17.056;2022-08-25T14:28:13;26.80;66.30
68433;DHT22;55412;51.350;17.056;2022-08-25T14:30:47;26.70;67.30
68433;DHT22;55412;51.350;17.056;2022-08-25T14:33:17;26.70;67.30
68433;DHT22;55412;51.350;17.056;2022-08-25T14:35:48;26.70;66.00
68433;DHT22;55412;51.350;17.056;2022-08-25T14:38:16;26.70;66.10
68433;DHT22;55412;51.350;17.056;2022-08-25T14:40:44;26.60;66.40
68433;DHT22;55412;51.350;17.056;2022-08-25T14:43:11;26.50;67.20
68433;DHT22;55412;51.350;17.056;2022-08-25T14:45:41;26.50;67.10
68433;DHT22;55412;51.350;17.056;2022-08-25T14:48:13;26.40;67.50
68433;DHT22;55412;51.350;17.056;2022-08-25T14:50:55;26.40;66.80
68433;DHT22;55412;51.350;17.056;2022-08-25T14:53:24;26.40;67.90
68433;DHT22;55412;51.350;17.056;2022-08-25T14:55:50;26.50;68.00
68433;DHT22;55412;51.350;17.056;2022-08-25T14:58:22;26.60;66.70
68433;DHT22;55412;51.350;17.056;2022-08-25T15:00:49;26.70;66.30
68433;DHT22;55412;51.350;17.056;2022-08-25T15:03:39;26.70;66.00
68433;DHT22;55412;51.350;17.056;2022-08-25T15:06:11;26.80;66.50
68433;DHT22;55412;51.350;17.056;2022-08-25T15:08:38;26.80;66.10
68433;DHT22;55412;51.350;17.056;2022-08-25T15:11:24;26.80;65.40
68433;DHT22;55412;51.350;17.056;2022-08-25T15:13:50;26.90;66.10
68433;DHT22;55412;51.350;17.056;2022-08-25T15:16:38;26.90;65.30
68433;DHT22;55412;51.350;17.056;2022-08-25T15:19:09;26.90;65.10
68433;DHT22;55412;51.350;17.056;2022-08-25T15:21:39;26.90;65.40
68433;DHT22;55412;51.350;17.056;2022-08-25T15:24:07;26.80;67.00
68433;DHT22;55412;51.350;17.056;2022-08-25T15:26:47;26.80;66.50
68433;DHT22;55412;51.350;17.056;2022-08-25T15:29:20;26.90;66.60
68433;DHT22;55412;51.350;17.056;2022-08-25T15:31:48;26.80;66.60
68433;DHT22;55412;51.350;17.056;2022-08-25T15:34:14;26.80;66.80
68433;DHT22;55412;51.350;17.056;2022-08-25T15:36:41;26.80;66.00
68433;DHT22;55412;51.350;17.056;2022-08-25T15:39:08;26.70;66.70
68433;DHT22;55412;51.350;17.056;2022-08-25T15:41:35;26.70;67.30
68433;DHT22;55412;51.350;17.056;2022-08-25T15:44:04;26.70;67.10
68433;DHT22;55412;51.350;17.056;2022-08-25T15:46:32;26.60;67.20
68433;DHT22;55412;51.350;17.056;2022-08-25T15:48:59;26.60;67.80
68433;DHT22;55412;51.350;17.056;2022-08-25T15:51:28;26.50;67.70
68433;DHT22;55412;51.350;17.056;2022-08-25T15:53:55;26.50;67.50
68433;DHT22;55412;51.350;17.056;2022-08-25T15:56:22;26.50;68.10
68433;DHT22;55412;51.350;17.056;2022-08-25T15:58:49;26.50;68.10
68433;DHT22;55412;51.350;17.056;2022-08-25T16:01:22;26.50;68.40
68433;DHT22;55412;51.350;17.056;2022-08-25T16:03:52;26.50;68.40
68433;DHT22;55412;51.350;17.056;2022-08-25T16:06:19;26.50;67.90
68433;DHT22;55412;51.350;17.056;2022-08-25T16:08:45;26.50;68.10
68433;DHT22;55412;51.350;17.056;2022-08-25T16:11:18;26.50;68.50
68433;DHT22;55412;51.350;17.056;2022-08-25T16:13:47;26.50;69.00
68433;DHT22;55412;51.350;17.056;2022-08-25T16:16:17;26.50;68.80
68433;DHT22;55412;51.350;17.056;2022-08-25T16:18:45;26.50;68.90
68433;DHT22;55412;51.350;17.056;2022-08-25T16:21:15;26.50;68.80
68433;DHT22;55412;51.350;17.056;2022-08-25T16:23:44;26.40;68.90
68433;DHT22;55412;51.350;17.056;2022-08-25T16:26:11;26.40;68.90
68433;DHT22;55412;51.350;17.056;2022-08-25T16:28:39;26.40;69.20
68433;DHT22;55412;51.350;17.056;2022-08-25T16:31:08;26.30;70.10
68433;DHT22;55412;51.350;17.056;2022-08-25T16:33:36;26.30;70.00
68433;DHT22;55412;51.350;17.056;2022-08-25T16:36:07;26.40;69.80
68433;DHT22;55412;51.350;17.056;2022-08-25T16:38:36;26.40;70.40
68433;DHT22;55412;51.350;17.056;2022-08-25T16:41:08;26.40;69.90
68433;DHT22;55412;51.350;17.056;2022-08-25T16:43:36;26.30;70.00
68433;DHT22;55412;51.350;17.056;2022-08-25T16:46:06;26.30;70.20
68433;DHT22;55412;51.350;17.056;2022-08-25T16:48:34;26.30;70.20
68433;DHT22;55412;51.350;17.056;2022-08-25T16:51:04;26.30;70.30
68433;DHT22;55412;51.350;17.056;2022-08-25T16:53:33;26.30;70.40
68433;DHT22;55412;51.350;17.056;2022-08-25T16:56:17;26.20;70.60
68433;DHT22;55412;51.350;17.056;2022-08-25T16:58:53;26.20;70.80
68433;DHT22;55412;51.350;17.056;2022-08-25T17:01:21;26.20;70.70
68433;DHT22;55412;51.350;17.056;2022-08-25T17:03:51;26.20;70.50
68433;DHT22;55412;51.350;17.056;2022-08-25T17:06:18;26.20;70.30
68433;DHT22;55412;51.350;17.056;2022-08-25T17:08:44;26.10;71.30
68433;DHT22;55412;51.350;17.056;2022-08-25T17:11:14;26.00;71.20
68433;DHT22;55412;51.350;17.056;2022-08-25T17:13:50;26.00;71.40
68433;DHT22;55412;51.350;17.056;2022-08-25T17:16:19;25.90;71.70
68433;DHT22;55412;51.350;17.056;2022-08-25T17:18:47;25.80;71.80
68433;DHT22;55412;51.350;17.056;2022-08-25T17:21:15;25.80;71.90
68433;DHT22;55412;51.350;17.056;2022-08-25T17:23:43;25.70;72.10
68433;DHT22;55412;51.350;17.056;2022-08-25T17:26:11;25.70;72.40
68433;DHT22;55412;51.350;17.056;2022-08-25T17:28:39;25.70;72.40